sensor_id;sensor_type;location;lat;lon;timestamp;P1;durP1;ratioP1;P2;durP2;ratioP2
14235;SDS011;7202;50.718;7.072;2022-12-11T00:01:17;48.17;;;27.33;;
14235;SDS011;7202;50.718;7.072;2022-12-11T00:03:49;46.70;;;26.75;;
14235;SDS011;7202;50.718;7.072;2022-12-11T00:06:18;47.50;;;25.83;;
14235;SDS011;7202;50.718;7.072;2022-12-11T00:08:49;47.13;;;26.08;;
14235;SDS011;7202;50.718;7.072;2022-12-11T00:11:19;48.10;;;26.33;;
14235;SDS011;7202;50.718;7.072;2022-12-11T00:13:49;47.47;;;27.40;;
14235;SDS011;7202;50.718;7.072;2022-12-11T00:16:17;49.47;;;25.58;;
14235;SDS011;7202;50.718;7.072;2022-12-11T00:18:54;49.13;;;25.50;;
14235;SDS011;7202;50.718;7.072;2022-12-11T00:21:22;46.22;;;25.60;;
14235;SDS011;7202;50.718;7.072;2022-12-11T00:23:51;46.80;;;25.75;;
14235;SDS011;7202;50.718;7.072;2022-12-11T00:26:20;45.83;;;24.98;;
14235;SDS011;7202;50.718;7.072;2022-12-11T00:28:51;45.53;;;25.17;;
14235;SDS011;7202;50.718;7.072;2022-12-11T00:31:20;47.92;;;26.15;;
14235;SDS011;7202;50.718;7.072;2022-12-11T00:33:50;49.75;;;25.25;;
14235;SDS011;7202;50.718;7.072;2022-12-11T00:36:20;51.92;;;27.35;;
14235;SDS011;7202;50.718;7.072;2022-12-11T00:38:50;47.35;;;26.40;;
14235;SDS011;7202;50.718;7.072;2022-12-11T00:41:20;46.63;;;26.33;;
14235;SDS011;7202;50.718;7.072;2022-12-11T00:43:49;46.42;;;27.13;;
14235;SDS011;7202;50.718;7.072;2022-12-11T00:46:19;49.03;;;25.92;;
14235;SDS011;7202;50.718;7.072;2022-12-11T00:48:47;45.58;;;25.92;;
14235;SDS011;7202;50.718;7.072;2022-12-11T00:51:16;51.30;;;25.42;;
14235;SDS011;7202;50.718;7.072;2022-12-11T00:53:46;52.00;;;28.23;;
14235;SDS011;7202;50.718;7.072;2022-12-11T00:56:16;46.05;;;27.02;;
14235;SDS011;7202;50.718;7.072;2022-12-11T00:58:46;48.13;;;26.25;;
14235;SDS011;7202;50.718;7.072;2022-12-11T01:01:16;47.22;;;26.63;;
14235;SDS011;7202;50.718;7.072;2022-12-11T01:03:46;50.63;;;27.45;;
14235;SDS011;7202;50.718;7.072;2022-12-11T01:06:16;47.95;;;27.00;;
14235;SDS011;7202;50.718;7.072;2022-12-11T01:08:47;49.60;;;26.00;;
14235;SDS011;7202;50.718;7.072;2022-12-11T01:11:36;55.50;;;27.98;;
14235;SDS011;7202;50.718;7.072;2022-12-11T01:14:03;49.97;;;28.13;;
14235;SDS011;7202;50.718;7.072;2022-12-11T01:16:32;51.60;;;27.92;;
14235;SDS011;7202;50.718;7.072;2022-12-11T01:19:01;47.63;;;25.25;;
14235;SDS011;7202;50.718;7.072;2022-12-11T01:21:30;43.63;;;25.27;;
14235;SDS011;7202;50.718;7.072;2022-12-11T01:24:00;49.75;;;26.77;;
14235;SDS011;7202;50.718;7.072;2022-12-11T01:26:28;55.97;;;27.88;;
14235;SDS011;7202;50.718;7.072;2022-12-11T01:28:57;53.08;;;27.15;;
14235;SDS011;7202;50.718;7.072;2022-12-11T01:31:26;45.72;;;26.75;;
14235;SDS011;7202;50.718;7.072;2022-12-11T01:33:54;53.33;;;26.63;;
14235;SDS011;7202;50.718;7.072;2022-12-11T01:36:23;50.63;;;26.80;;
14235;SDS011;7202;50.718;7.072;2022-12-11T01:38:51;51.22;;;26.48;;
14235;SDS011;7202;50.718;7.072;2022-12-11T01:41:21;48.78;;;26.30;;
14235;SDS011;7202;50.718;7.072;2022-12-11T01:43:57;47.47;;;24.98;;
14235;SDS011;7202;50.718;7.072;2022-12-11T01:46:27;43.38;;;24.95;;
14235;SDS011;7202;50.718;7.072;2022-12-11T01:48:57;51.97;;;24.50;;
14235;SDS011;7202;50.718;7.072;2022-12-11T01:51:28;47.42;;;23.80;;
14235;SDS011;7202;50.718;7.072;2022-12-11T01:53:59;49.65;;;24.23;;
14235;SDS011;7202;50.718;7.072;2022-12-11T01:56:33;50.97;;;23.42;;
14235;SDS011;7202;50.718;7.072;2022-12-11T01:59:04;51.25;;;23.58;;
14235;SDS011;7202;50.718;7.072;2022-12-11T02:01:36;52.25;;;24.23;;
14235;SDS011;7202;50.718;7.072;2022-12-11T02:04:08;47.30;;;21.83;;
14235;SDS011;7202;50.718;7.072;2022-12-11T02:06:38;52.75;;;23.05;;
14235;SDS011;7202;50.718;7.072;2022-12-11T02:09:09;47.53;;;20.52;;
14235;SDS011;7202;50.718;7.072;2022-12-11T02:11:45;46.08;;;21.50;;
14235;SDS011;7202;50.718;7.072;2022-12-11T02:14:22;42.88;;;19.58;;
14235;SDS011;7202;50.718;7.072;2022-12-11T02:16:58;45.33;;;21.75;;
14235;SDS011;7202;50.718;7.072;2022-12-11T02:22:21;55.03;;;21.85;;
14235;SDS011;7202;50.718;7.072;2022-12-11T02:25:02;47.53;;;22.65;;
14235;SDS011;7202;50.718;7.072;2022-12-11T02:27:41;47.38;;;22.38;;
14235;SDS011;7202;50.718;7.072;2022-12-11T02:30:14;48.75;;;22.67;;
14235;SDS011;7202;50.718;7.072;2022-12-11T02:32:44;46.55;;;22.42;;
14235;SDS011;7202;50.718;7.072;2022-12-11T02:35:16;51.03;;;22.02;;
14235;SDS011;7202;50.718;7.072;2022-12-11T02:37:49;48.72;;;22.30;;
14235;SDS011;7202;50.718;7.072;2022-12-11T02:40:24;46.83;;;21.88;;
14235;SDS011;7202;50.718;7.072;2022-12-11T02:42:55;51.20;;;22.65;;
14235;SDS011;7202;50.718;7.072;2022-12-11T02:45:27;50.40;;;20.67;;
14235;SDS011;7202;50.718;7.072;2022-12-11T02:47:57;47.30;;;21.05;;
14235;SDS011;7202;50.718;7.072;2022-12-11T02:50:30;47.17;;;21.33;;
14235;SDS011;7202;50.718;7.072;2022-12-11T02:53:03;40.70;;;18.55;;
14235;SDS011;7202;50.718;7.072;2022-12-11T02:55:33;36.42;;;18.27;;
14235;SDS011;7202;50.718;7.072;2022-12-11T02:58:05;40.58;;;19.63;;
14235;SDS011;7202;50.718;7.072;2022-12-11T03:00:40;37.40;;;18.42;;
14235;SDS011;7202;50.718;7.072;2022-12-11T03:03:08;41.50;;;19.17;;
14235;SDS011;7202;50.718;7.072;2022-12-11T03:05:37;42.03;;;19.35;;
14235;SDS011;7202;50.718;7.072;2022-12-11T03:08:06;41.05;;;19.13;;
14235;SDS011;7202;50.718;7.072;2022-12-11T03:10:35;39.63;;;18.13;;
14235;SDS011;7202;50.718;7.072;2022-12-11T03:13:04;42.55;;;18.45;;
14235;SDS011;7202;50.718;7.072;2022-12-11T03:15:33;41.63;;;19.50;;
14235;SDS011;7202;50.718;7.072;2022-12-11T03:18:10;40.50;;;19.08;;
14235;SDS011;7202;50.718;7.072;2022-12-11T03:20:45;37.42;;;18.48;;
14235;SDS011;7202;50.718;7.072;2022-12-11T03:23:21;37.42;;;17.13;;
14235;SDS011;7202;50.718;7.072;2022-12-11T03:25:58;41.65;;;18.05;;
14235;SDS011;7202;50.718;7.072;2022-12-11T03:28:31;37.80;;;18.25;;
14235;SDS011;7202;50.718;7.072;2022-12-11T03:31:06;38.42;;;17.02;;
14235;SDS011;7202;50.718;7.072;2022-12-11T03:33:40;37.88;;;18.13;;
14235;SDS011;7202;50.718;7.072;2022-12-11T03:36:12;36.08;;;18.10;;
14235;SDS011;7202;50.718;7.072;2022-12-11T03:38:46;36.53;;;17.52;;
14235;SDS011;7202;50.718;7.072;2022-12-11T03:41:19;44.30;;;20.20;;
14235;SDS011;7202;50.718;7.072;2022-12-11T03:43:51;38.95;;;17.85;;
14235;SDS011;7202;50.718;7.072;2022-12-11T03:46:24;44.40;;;19.52;;
14235;SDS011;7202;50.718;7.072;2022-12-11T03:48:59;38.97;;;18.00;;
14235;SDS011;7202;50.718;7.072;2022-12-11T03:51:32;41.90;;;19.23;;
14235;SDS011;7202;50.718;7.072;2022-12-11T03:54:02;41.03;;;18.92;;
14235;SDS011;7202;50.718;7.072;2022-12-11T03:56:31;39.03;;;17.88;;
14235;SDS011;7202;50.718;7.072;2022-12-11T03:59:02;39.08;;;19.35;;
14235;SDS011;7202;50.718;7.072;2022-12-11T04:01:31;36.25;;;18.17;;
14235;SDS011;7202;50.718;7.072;2022-12-11T04:04:01;40.45;;;19.00;;
14235;SDS011;7202;50.718;7.072;2022-12-11T04:06:30;37.30;;;17.83;;
14235;SDS011;7202;50.718;7.072;2022-12-11T04:08:58;39.15;;;19.27;;
14235;SDS011;7202;50.718;7.072;2022-12-11T04:11:27;35.42;;;17.65;;
14235;SDS011;7202;50.718;7.072;2022-12-11T04:14:02;36.30;;;17.95;;
14235;SDS011;7202;50.718;7.072;2022-12-11T04:16:49;47.17;;;20.38;;
14235;SDS011;7202;50.718;7.072;2022-12-11T04:19:19;38.95;;;18.45;;
14235;SDS011;7202;50.718;7.072;2022-12-11T04:22:06;42.63;;;19.85;;
14235;SDS011;7202;50.718;7.072;2022-12-11T04:24:53;35.25;;;17.95;;
14235;SDS011;7202;50.718;7.072;2022-12-11T04:27:22;39.80;;;19.60;;
14235;SDS011;7202;50.718;7.072;2022-12-11T04:30:10;37.60;;;18.85;;
14235;SDS011;7202;50.718;7.072;2022-12-11T04:32:40;39.95;;;18.05;;
14235;SDS011;7202;50.718;7.072;2022-12-11T04:35:10;40.03;;;18.02;;
14235;SDS011;7202;50.718;7.072;2022-12-11T04:37:40;37.95;;;18.48;;
14235;SDS011;7202;50.718;7.072;2022-12-11T04:40:09;37.95;;;19.15;;
14235;SDS011;7202;50.718;7.072;2022-12-11T04:42:40;44.75;;;19.77;;
14235;SDS011;7202;50.718;7.072;2022-12-11T04:45:10;45.20;;;20.92;;
14235;SDS011;7202;50.718;7.072;2022-12-11T04:47:40;40.25;;;18.60;;
14235;SDS011;7202;50.718;7.072;2022-12-11T04:50:11;35.42;;;17.83;;
14235;SDS011;7202;50.718;7.072;2022-12-11T04:52:41;39.40;;;17.92;;
14235;SDS011;7202;50.718;7.072;2022-12-11T04:55:10;40.40;;;18.00;;
14235;SDS011;7202;50.718;7.072;2022-12-11T04:57:39;36.28;;;17.40;;
14235;SDS011;7202;50.718;7.072;2022-12-11T05:00:09;36.42;;;17.90;;
14235;SDS011;7202;50.718;7.072;2022-12-11T05:02:40;43.33;;;20.10;;
14235;SDS011;7202;50.718;7.072;2022-12-11T05:05:10;39.88;;;20.10;;
14235;SDS011;7202;50.718;7.072;2022-12-11T05:07:40;45.00;;;21.20;;
14235;SDS011;7202;50.718;7.072;2022-12-11T05:10:09;52.10;;;23.67;;
14235;SDS011;7202;50.718;7.072;2022-12-11T05:12:38;53.40;;;23.83;;
14235;SDS011;7202;50.718;7.072;2022-12-11T05:15:06;54.78;;;24.85;;
14235;SDS011;7202;50.718;7.072;2022-12-11T05:17:36;53.00;;;24.50;;
14235;SDS011;7202;50.718;7.072;2022-12-11T05:20:05;55.47;;;23.05;;
14235;SDS011;7202;50.718;7.072;2022-12-11T05:22:36;51.95;;;24.63;;
14235;SDS011;7202;50.718;7.072;2022-12-11T05:25:06;51.22;;;21.90;;
14235;SDS011;7202;50.718;7.072;2022-12-11T05:27:35;49.45;;;22.08;;
14235;SDS011;7202;50.718;7.072;2022-12-11T05:30:04;47.33;;;22.73;;
14235;SDS011;7202;50.718;7.072;2022-12-11T05:32:34;46.53;;;22.48;;
14235;SDS011;7202;50.718;7.072;2022-12-11T05:35:03;45.75;;;22.77;;
14235;SDS011;7202;50.718;7.072;2022-12-11T05:37:32;49.72;;;22.98;;
14235;SDS011;7202;50.718;7.072;2022-12-11T05:40:02;49.70;;;21.63;;
14235;SDS011;7202;50.718;7.072;2022-12-11T05:42:32;50.50;;;22.05;;
14235;SDS011;7202;50.718;7.072;2022-12-11T05:45:00;45.72;;;21.73;;
14235;SDS011;7202;50.718;7.072;2022-12-11T05:47:29;49.85;;;23.25;;
14235;SDS011;7202;50.718;7.072;2022-12-11T05:49:58;47.88;;;23.75;;
14235;SDS011;7202;50.718;7.072;2022-12-11T05:52:27;59.70;;;23.85;;
14235;SDS011;7202;50.718;7.072;2022-12-11T05:54:55;50.05;;;22.70;;
14235;SDS011;7202;50.718;7.072;2022-12-11T05:57:25;59.58;;;23.92;;
14235;SDS011;7202;50.718;7.072;2022-12-11T05:59:54;52.78;;;24.63;;
14235;SDS011;7202;50.718;7.072;2022-12-11T06:02:22;53.50;;;23.83;;
14235;SDS011;7202;50.718;7.072;2022-12-11T06:04:51;54.30;;;24.20;;
14235;SDS011;7202;50.718;7.072;2022-12-11T06:07:20;57.30;;;24.05;;
14235;SDS011;7202;50.718;7.072;2022-12-11T06:09:48;60.78;;;24.92;;
14235;SDS011;7202;50.718;7.072;2022-12-11T06:12:17;60.67;;;25.48;;
14235;SDS011;7202;50.718;7.072;2022-12-11T06:14:47;62.92;;;26.58;;
14235;SDS011;7202;50.718;7.072;2022-12-11T06:17:15;66.97;;;27.33;;
14235;SDS011;7202;50.718;7.072;2022-12-11T06:19:44;69.72;;;28.10;;
14235;SDS011;7202;50.718;7.072;2022-12-11T06:22:13;63.75;;;24.85;;
14235;SDS011;7202;50.718;7.072;2022-12-11T06:24:41;59.58;;;24.85;;
14235;SDS011;7202;50.718;7.072;2022-12-11T06:27:10;67.90;;;30.73;;
14235;SDS011;7202;50.718;7.072;2022-12-11T06:29:39;75.35;;;29.02;;
14235;SDS011;7202;50.718;7.072;2022-12-11T06:32:09;69.35;;;28.63;;
14235;SDS011;7202;50.718;7.072;2022-12-11T06:34:37;68.70;;;29.10;;
14235;SDS011;7202;50.718;7.072;2022-12-11T06:37:06;60.20;;;27.20;;
14235;SDS011;7202;50.718;7.072;2022-12-11T06:39:34;65.63;;;28.52;;
14235;SDS011;7202;50.718;7.072;2022-12-11T06:42:03;69.38;;;27.85;;
14235;SDS011;7202;50.718;7.072;2022-12-11T06:44:32;66.97;;;28.88;;
14235;SDS011;7202;50.718;7.072;2022-12-11T06:47:02;67.18;;;29.42;;
14235;SDS011;7202;50.718;7.072;2022-12-11T06:49:32;67.22;;;27.65;;
14235;SDS011;7202;50.718;7.072;2022-12-11T06:52:01;71.90;;;27.95;;
14235;SDS011;7202;50.718;7.072;2022-12-11T06:54:29;67.60;;;28.90;;
14235;SDS011;7202;50.718;7.072;2022-12-11T06:56:58;61.95;;;29.52;;
14235;SDS011;7202;50.718;7.072;2022-12-11T06:59:27;70.43;;;28.98;;
14235;SDS011;7202;50.718;7.072;2022-12-11T07:01:55;63.72;;;28.20;;
14235;SDS011;7202;50.718;7.072;2022-12-11T07:04:24;68.60;;;29.13;;
14235;SDS011;7202;50.718;7.072;2022-12-11T07:06:54;73.13;;;29.98;;
14235;SDS011;7202;50.718;7.072;2022-12-11T07:09:23;61.67;;;28.25;;
14235;SDS011;7202;50.718;7.072;2022-12-11T07:11:52;69.82;;;30.33;;
14235;SDS011;7202;50.718;7.072;2022-12-11T07:14:20;62.65;;;28.98;;
14235;SDS011;7202;50.718;7.072;2022-12-11T07:16:49;68.05;;;30.58;;
14235;SDS011;7202;50.718;7.072;2022-12-11T07:19:18;66.15;;;28.88;;
14235;SDS011;7202;50.718;7.072;2022-12-11T07:21:47;59.78;;;28.67;;
14235;SDS011;7202;50.718;7.072;2022-12-11T07:24:17;63.70;;;27.58;;
14235;SDS011;7202;50.718;7.072;2022-12-11T07:26:46;61.97;;;28.10;;
14235;SDS011;7202;50.718;7.072;2022-12-11T07:29:14;61.03;;;27.48;;
14235;SDS011;7202;50.718;7.072;2022-12-11T07:31:43;56.65;;;26.73;;
14235;SDS011;7202;50.718;7.072;2022-12-11T07:34:12;55.63;;;26.65;;
14235;SDS011;7202;50.718;7.072;2022-12-11T07:36:41;58.30;;;27.77;;
14235;SDS011;7202;50.718;7.072;2022-12-11T07:39:10;57.95;;;27.50;;
14235;SDS011;7202;50.718;7.072;2022-12-11T07:41:40;58.53;;;27.67;;
14235;SDS011;7202;50.718;7.072;2022-12-11T07:44:09;58.85;;;27.13;;
14235;SDS011;7202;50.718;7.072;2022-12-11T07:46:38;66.65;;;28.92;;
14235;SDS011;7202;50.718;7.072;2022-12-11T07:49:07;65.70;;;29.00;;
14235;SDS011;7202;50.718;7.072;2022-12-11T07:51:36;64.68;;;29.65;;
14235;SDS011;7202;50.718;7.072;2022-12-11T07:54:06;60.42;;;27.80;;
14235;SDS011;7202;50.718;7.072;2022-12-11T07:56:37;64.20;;;29.00;;
14235;SDS011;7202;50.718;7.072;2022-12-11T07:59:11;61.67;;;27.90;;
14235;SDS011;7202;50.718;7.072;2022-12-11T08:01:39;63.70;;;30.05;;
14235;SDS011;7202;50.718;7.072;2022-12-11T08:04:09;63.85;;;28.02;;
14235;SDS011;7202;50.718;7.072;2022-12-11T08:06:41;67.60;;;29.20;;
14235;SDS011;7202;50.718;7.072;2022-12-11T08:09:11;64.38;;;27.75;;
14235;SDS011;7202;50.718;7.072;2022-12-11T08:11:47;55.03;;;26.23;;
14235;SDS011;7202;50.718;7.072;2022-12-11T08:14:18;60.25;;;26.80;;
14235;SDS011;7202;50.718;7.072;2022-12-11T08:16:47;67.85;;;28.17;;
14235;SDS011;7202;50.718;7.072;2022-12-11T08:19:16;59.13;;;26.38;;
14235;SDS011;7202;50.718;7.072;2022-12-11T08:21:45;63.03;;;26.55;;
14235;SDS011;7202;50.718;7.072;2022-12-11T08:24:13;57.60;;;26.90;;
14235;SDS011;7202;50.718;7.072;2022-12-11T08:26:46;53.42;;;25.23;;
14235;SDS011;7202;50.718;7.072;2022-12-11T08:29:15;55.53;;;25.55;;
14235;SDS011;7202;50.718;7.072;2022-12-11T08:31:45;61.88;;;26.42;;
14235;SDS011;7202;50.718;7.072;2022-12-11T08:34:13;56.70;;;27.02;;
14235;SDS011;7202;50.718;7.072;2022-12-11T08:36:42;61.95;;;26.83;;
14235;SDS011;7202;50.718;7.072;2022-12-11T08:39:10;60.20;;;26.70;;
14235;SDS011;7202;50.718;7.072;2022-12-11T08:41:39;63.03;;;25.83;;
14235;SDS011;7202;50.718;7.072;2022-12-11T08:44:09;48.65;;;25.40;;
14235;SDS011;7202;50.718;7.072;2022-12-11T08:46:42;53.88;;;25.85;;
14235;SDS011;7202;50.718;7.072;2022-12-11T08:49:12;52.65;;;25.15;;
14235;SDS011;7202;50.718;7.072;2022-12-11T08:51:41;57.60;;;26.52;;
14235;SDS011;7202;50.718;7.072;2022-12-11T08:54:10;49.85;;;26.10;;
14235;SDS011;7202;50.718;7.072;2022-12-11T08:56:38;56.40;;;24.98;;
14235;SDS011;7202;50.718;7.072;2022-12-11T08:59:07;56.40;;;26.00;;
14235;SDS011;7202;50.718;7.072;2022-12-11T09:01:36;55.92;;;27.23;;
14235;SDS011;7202;50.718;7.072;2022-12-11T09:04:06;47.47;;;24.08;;
14235;SDS011;7202;50.718;7.072;2022-12-11T09:06:35;54.90;;;25.05;;
14235;SDS011;7202;50.718;7.072;2022-12-11T09:09:04;61.10;;;25.92;;
14235;SDS011;7202;50.718;7.072;2022-12-11T09:11:34;53.42;;;25.38;;
14235;SDS011;7202;50.718;7.072;2022-12-11T09:14:03;48.45;;;24.92;;
14235;SDS011;7202;50.718;7.072;2022-12-11T09:16:34;48.97;;;25.08;;
14235;SDS011;7202;50.718;7.072;2022-12-11T09:19:10;50.33;;;23.77;;
14235;SDS011;7202;50.718;7.072;2022-12-11T09:21:40;46.50;;;22.88;;
14235;SDS011;7202;50.718;7.072;2022-12-11T09:24:10;47.38;;;23.55;;
14235;SDS011;7202;50.718;7.072;2022-12-11T09:26:39;45.38;;;22.95;;
14235;SDS011;7202;50.718;7.072;2022-12-11T09:29:09;47.17;;;23.85;;
14235;SDS011;7202;50.718;7.072;2022-12-11T09:31:38;52.95;;;24.20;;
14235;SDS011;7202;50.718;7.072;2022-12-11T09:34:07;45.65;;;23.05;;
14235;SDS011;7202;50.718;7.072;2022-12-11T09:36:39;46.53;;;24.00;;
14235;SDS011;7202;50.718;7.072;2022-12-11T09:39:10;52.22;;;25.65;;
14235;SDS011;7202;50.718;7.072;2022-12-11T09:41:44;52.35;;;25.83;;
14235;SDS011;7202;50.718;7.072;2022-12-11T09:44:39;49.13;;;24.10;;
14235;SDS011;7202;50.718;7.072;2022-12-11T09:47:15;48.50;;;23.73;;
14235;SDS011;7202;50.718;7.072;2022-12-11T09:49:49;47.35;;;23.90;;
14235;SDS011;7202;50.718;7.072;2022-12-11T09:52:25;42.67;;;24.02;;
14235;SDS011;7202;50.718;7.072;2022-12-11T09:55:00;47.08;;;23.90;;
14235;SDS011;7202;50.718;7.072;2022-12-11T09:57:41;44.78;;;23.88;;
14235;SDS011;7202;50.718;7.072;2022-12-11T10:00:22;46.63;;;22.98;;
14235;SDS011;7202;50.718;7.072;2022-12-11T10:03:00;49.63;;;24.75;;
14235;SDS011;7202;50.718;7.072;2022-12-11T10:06:04;48.22;;;23.85;;
14235;SDS011;7202;50.718;7.072;2022-12-11T10:08:42;43.75;;;22.20;;
14235;SDS011;7202;50.718;7.072;2022-12-11T10:11:21;46.40;;;23.45;;
14235;SDS011;7202;50.718;7.072;2022-12-11T10:14:24;45.78;;;23.63;;
14235;SDS011;7202;50.718;7.072;2022-12-11T10:17:01;41.00;;;23.02;;
14235;SDS011;7202;50.718;7.072;2022-12-11T10:19:36;43.08;;;23.25;;
14235;SDS011;7202;50.718;7.072;2022-12-11T10:22:11;42.03;;;22.42;;
14235;SDS011;7202;50.718;7.072;2022-12-11T10:24:46;41.90;;;23.83;;
14235;SDS011;7202;50.718;7.072;2022-12-11T10:27:39;43.30;;;22.05;;
14235;SDS011;7202;50.718;7.072;2022-12-11T10:30:12;43.80;;;22.25;;
14235;SDS011;7202;50.718;7.072;2022-12-11T10:32:51;44.55;;;22.80;;
14235;SDS011;7202;50.718;7.072;2022-12-11T10:35:25;41.50;;;22.50;;
14235;SDS011;7202;50.718;7.072;2022-12-11T10:38:05;40.30;;;21.58;;
14235;SDS011;7202;50.718;7.072;2022-12-11T10:40:40;40.03;;;21.25;;
14235;SDS011;7202;50.718;7.072;2022-12-11T10:43:11;39.38;;;21.25;;
14235;SDS011;7202;50.718;7.072;2022-12-11T10:45:48;37.80;;;20.02;;
14235;SDS011;7202;50.718;7.072;2022-12-11T10:48:19;42.42;;;22.85;;
14235;SDS011;7202;50.718;7.072;2022-12-11T10:50:55;41.15;;;21.92;;
14235;SDS011;7202;50.718;7.072;2022-12-11T10:53:27;38.25;;;20.25;;
14235;SDS011;7202;50.718;7.072;2022-12-11T10:55:57;38.15;;;19.52;;
14235;SDS011;7202;50.718;7.072;2022-12-11T10:58:27;30.58;;;17.48;;
14235;SDS011;7202;50.718;7.072;2022-12-11T11:01:06;30.40;;;16.25;;
14235;SDS011;7202;50.718;7.072;2022-12-11T11:03:41;29.13;;;16.58;;
14235;SDS011;7202;50.718;7.072;2022-12-11T11:06:20;27.73;;;15.60;;
14235;SDS011;7202;50.718;7.072;2022-12-11T11:08:51;29.00;;;15.73;;
14235;SDS011;7202;50.718;7.072;2022-12-11T11:11:23;27.50;;;15.30;;
14235;SDS011;7202;50.718;7.072;2022-12-11T11:14:09;31.20;;;15.50;;
14235;SDS011;7202;50.718;7.072;2022-12-11T11:16:42;26.63;;;14.80;;
14235;SDS011;7202;50.718;7.072;2022-12-11T11:19:17;26.48;;;14.85;;
14235;SDS011;7202;50.718;7.072;2022-12-11T11:21:49;28.95;;;15.88;;
14235;SDS011;7202;50.718;7.072;2022-12-11T11:24:23;33.22;;;15.60;;
14235;SDS011;7202;50.718;7.072;2022-12-11T11:26:55;24.85;;;14.73;;
14235;SDS011;7202;50.718;7.072;2022-12-11T11:29:40;27.15;;;16.08;;
14235;SDS011;7202;50.718;7.072;2022-12-11T11:32:16;30.73;;;14.88;;
14235;SDS011;7202;50.718;7.072;2022-12-11T11:34:49;26.30;;;14.25;;
14235;SDS011;7202;50.718;7.072;2022-12-11T11:37:22;23.95;;;13.95;;
14235;SDS011;7202;50.718;7.072;2022-12-11T11:39:56;27.90;;;15.02;;
14235;SDS011;7202;50.718;7.072;2022-12-11T11:42:33;27.77;;;15.18;;
14235;SDS011;7202;50.718;7.072;2022-12-11T11:45:11;28.38;;;15.77;;
14235;SDS011;7202;50.718;7.072;2022-12-11T11:47:44;25.42;;;15.57;;
14235;SDS011;7202;50.718;7.072;2022-12-11T11:50:19;28.25;;;15.85;;
14235;SDS011;7202;50.718;7.072;2022-12-11T11:52:52;26.75;;;15.15;;
14235;SDS011;7202;50.718;7.072;2022-12-11T11:55:31;24.73;;;15.35;;
14235;SDS011;7202;50.718;7.072;2022-12-11T11:58:06;26.50;;;15.48;;
14235;SDS011;7202;50.718;7.072;2022-12-11T12:00:41;30.02;;;15.55;;
14235;SDS011;7202;50.718;7.072;2022-12-11T12:03:29;29.92;;;15.65;;
14235;SDS011;7202;50.718;7.072;2022-12-11T12:06:01;28.92;;;16.40;;
14235;SDS011;7202;50.718;7.072;2022-12-11T12:08:43;25.25;;;15.55;;
14235;SDS011;7202;50.718;7.072;2022-12-11T12:11:22;27.25;;;15.90;;
14235;SDS011;7202;50.718;7.072;2022-12-11T12:13:59;28.25;;;15.55;;
14235;SDS011;7202;50.718;7.072;2022-12-11T12:16:59;30.35;;;16.60;;
14235;SDS011;7202;50.718;7.072;2022-12-11T12:19:44;30.77;;;15.55;;
14235;SDS011;7202;50.718;7.072;2022-12-11T12:22:23;29.45;;;16.23;;
14235;SDS011;7202;50.718;7.072;2022-12-11T12:25:02;30.17;;;15.35;;
14235;SDS011;7202;50.718;7.072;2022-12-11T12:27:45;26.42;;;15.00;;
14235;SDS011;7202;50.718;7.072;2022-12-11T12:30:19;25.42;;;15.68;;
14235;SDS011;7202;50.718;7.072;2022-12-11T12:32:53;26.95;;;15.30;;
14235;SDS011;7202;50.718;7.072;2022-12-11T12:35:34;27.92;;;15.07;;
14235;SDS011;7202;50.718;7.072;2022-12-11T12:38:09;26.08;;;15.07;;
14235;SDS011;7202;50.718;7.072;2022-12-11T12:40:45;25.17;;;14.57;;
14235;SDS011;7202;50.718;7.072;2022-12-11T12:46:15;29.60;;;15.75;;
14235;SDS011;7202;50.718;7.072;2022-12-11T12:48:55;22.98;;;13.55;;
14235;SDS011;7202;50.718;7.072;2022-12-11T12:51:25;22.08;;;12.20;;
14235;SDS011;7202;50.718;7.072;2022-12-11T12:53:55;20.17;;;12.63;;
14235;SDS011;7202;50.718;7.072;2022-12-11T12:56:28;18.08;;;11.50;;
14235;SDS011;7202;50.718;7.072;2022-12-11T12:59:00;20.75;;;11.95;;
14235;SDS011;7202;50.718;7.072;2022-12-11T13:01:29;21.50;;;12.32;;
14235;SDS011;7202;50.718;7.072;2022-12-11T13:03:59;22.77;;;13.25;;
14235;SDS011;7202;50.718;7.072;2022-12-11T13:06:30;22.38;;;13.80;;
14235;SDS011;7202;50.718;7.072;2022-12-11T13:09:11;20.77;;;12.50;;
14235;SDS011;7202;50.718;7.072;2022-12-11T13:11:43;23.23;;;14.18;;
14235;SDS011;7202;50.718;7.072;2022-12-11T13:14:24;22.90;;;14.10;;
14235;SDS011;7202;50.718;7.072;2022-12-11T13:17:03;23.27;;;13.60;;
14235;SDS011;7202;50.718;7.072;2022-12-11T13:19:34;26.25;;;14.82;;
14235;SDS011;7202;50.718;7.072;2022-12-11T13:22:19;28.30;;;14.18;;
14235;SDS011;7202;50.718;7.072;2022-12-11T13:24:55;23.25;;;14.23;;
14235;SDS011;7202;50.718;7.072;2022-12-11T13:27:35;26.75;;;15.15;;
14235;SDS011;7202;50.718;7.072;2022-12-11T13:30:18;25.50;;;15.70;;
14235;SDS011;7202;50.718;7.072;2022-12-11T13:32:53;29.20;;;14.38;;
14235;SDS011;7202;50.718;7.072;2022-12-11T13:35:30;28.73;;;14.25;;
14235;SDS011;7202;50.718;7.072;2022-12-11T13:38:03;28.48;;;15.15;;
14235;SDS011;7202;50.718;7.072;2022-12-11T13:40:35;26.70;;;14.10;;
14235;SDS011;7202;50.718;7.072;2022-12-11T13:43:08;24.35;;;14.70;;
14235;SDS011;7202;50.718;7.072;2022-12-11T13:45:47;24.55;;;14.77;;
14235;SDS011;7202;50.718;7.072;2022-12-11T13:48:20;24.95;;;14.27;;
14235;SDS011;7202;50.718;7.072;2022-12-11T13:50:51;26.25;;;14.98;;
14235;SDS011;7202;50.718;7.072;2022-12-11T13:53:21;28.63;;;16.10;;
14235;SDS011;7202;50.718;7.072;2022-12-11T13:55:55;28.38;;;15.25;;
14235;SDS011;7202;50.718;7.072;2022-12-11T13:58:24;27.02;;;15.63;;
14235;SDS011;7202;50.718;7.072;2022-12-11T14:00:58;28.50;;;15.50;;
14235;SDS011;7202;50.718;7.072;2022-12-11T14:03:31;31.10;;;16.20;;
14235;SDS011;7202;50.718;7.072;2022-12-11T14:06:00;27.73;;;15.48;;
14235;SDS011;7202;50.718;7.072;2022-12-11T14:08:31;26.17;;;15.00;;
14235;SDS011;7202;50.718;7.072;2022-12-11T14:11:03;26.58;;;15.30;;
14235;SDS011;7202;50.718;7.072;2022-12-11T14:13:33;28.42;;;15.93;;
14235;SDS011;7202;50.718;7.072;2022-12-11T14:16:05;29.63;;;16.80;;
14235;SDS011;7202;50.718;7.072;2022-12-11T14:18:34;28.75;;;16.15;;
14235;SDS011;7202;50.718;7.072;2022-12-11T14:21:04;26.35;;;15.05;;
14235;SDS011;7202;50.718;7.072;2022-12-11T14:23:34;31.55;;;16.60;;
14235;SDS011;7202;50.718;7.072;2022-12-11T14:26:17;27.02;;;15.52;;
14235;SDS011;7202;50.718;7.072;2022-12-11T14:28:48;25.17;;;14.50;;
14235;SDS011;7202;50.718;7.072;2022-12-11T14:31:20;26.55;;;14.85;;
14235;SDS011;7202;50.718;7.072;2022-12-11T14:33:56;25.73;;;15.85;;
14235;SDS011;7202;50.718;7.072;2022-12-11T14:36:30;26.52;;;16.05;;
14235;SDS011;7202;50.718;7.072;2022-12-11T14:39:01;24.63;;;16.20;;
14235;SDS011;7202;50.718;7.072;2022-12-11T14:41:33;27.35;;;16.42;;
14235;SDS011;7202;50.718;7.072;2022-12-11T14:44:10;26.27;;;14.80;;
14235;SDS011;7202;50.718;7.072;2022-12-11T14:46:44;25.35;;;15.40;;
14235;SDS011;7202;50.718;7.072;2022-12-11T14:49:16;26.58;;;15.65;;
14235;SDS011;7202;50.718;7.072;2022-12-11T14:51:50;25.98;;;15.15;;
14235;SDS011;7202;50.718;7.072;2022-12-11T14:54:26;24.73;;;15.25;;
14235;SDS011;7202;50.718;7.072;2022-12-11T14:56:58;23.90;;;14.45;;
14235;SDS011;7202;50.718;7.072;2022-12-11T14:59:28;27.30;;;15.27;;
14235;SDS011;7202;50.718;7.072;2022-12-11T15:02:02;24.33;;;13.38;;
14235;SDS011;7202;50.718;7.072;2022-12-11T15:04:55;24.75;;;14.20;;
14235;SDS011;7202;50.718;7.072;2022-12-11T15:07:32;23.75;;;13.30;;
14235;SDS011;7202;50.718;7.072;2022-12-11T15:10:01;22.83;;;13.75;;